Time;durP1;ratioP1;P1;durP2;ratioP2;P2;SDS_P1;SDS_P2;PMS_P1;PMS_P2;Temp;Humidity;BMP_temperature;BMP_pressure;BME280_temperature;BME280_humidity;BME280_pressure;Samples;Min_cycle;Max_cycle;Signal;HPM_P1;HPM_P2
2022/06/03 00:02:55;;;;;;;30.42;21.85;;;9.70;99.90;;;9.95;100.00;99649.47;5043233;27;119266;-74
2022/06/03 00:06:04;;;;;;;29.08;22.40;;;9.70;99.90;;;10.04;100.00;99658.50;5029344;27;129794;-73
2022/06/03 00:09:14;;;;;;;29.27;22.25;;;9.70;99.90;;;10.03;100.00;99661.50;5018224;27;129666;-74
2022/06/03 00:12:17;;;;;;;34.65;24.67;;;9.80;99.90;;;10.04;100.00;99669.34;5029356;27;118567;-72
2022/06/03 00:15:07;;;;;;;30.48;22.95;;;9.80;99.90;;;10.10;100.00;99661.09;5029681;27;118966;-72
2022/06/03 00:17:55;;;;;;;28.50;21.85;;;9.80;99.90;;;10.11;100.00;99665.41;5045836;27;129192;-76
2022/06/03 00:20:44;;;;;;;30.45;22.70;;;9.70;99.90;;;10.16;100.00;99670.72;5062749;27;129136;-76
2022/06/03 00:24:05;;;;;;;32.05;24.45;;;9.70;99.90;;;10.17;100.00;99686.69;5027910;27;120747;-74
2022/06/03 00:27:09;;;;;;;29.48;21.95;;;9.60;99.90;;;10.18;100.00;99679.38;5047734;27;121944;-75
2022/06/03 00:30:04;;;;;;;29.00;22.98;;;9.60;99.90;;;10.05;100.00;99687.22;4990106;27;129667;-75
2022/06/03 00:33:09;;;;;;;25.58;19.90;;;9.60;99.90;;;10.11;100.00;99678.97;5045606;27;128790;-73
2022/06/03 00:36:05;;;;;;;26.70;19.95;;;9.50;99.90;;;10.11;100.00;99689.81;4972522;27;118621;-74
2022/06/03 00:38:52;;;;;;;30.90;23.40;;;9.50;99.90;;;10.07;100.00;99679.59;5045585;27;119493;-72
2022/06/03 00:41:42;;;;;;;29.67;22.73;;;9.50;99.90;;;10.10;100.00;99677.34;5042560;27;129715;-73
2022/06/03 00:44:50;;;;;;;28.55;21.33;;;9.50;99.90;;;10.01;100.00;99688.94;5063029;27;129130;-73
2022/06/03 00:47:44;;;;;;;26.17;20.15;;;9.60;99.90;;;9.94;100.00;99685.84;5045667;27;119096;-72
2022/06/03 00:51:16;;;;;;;28.15;20.55;;;9.50;99.90;;;9.77;100.00;99686.44;5045525;27;118737;-72
2022/06/03 00:54:18;;;;;;;28.90;21.27;;;9.40;99.90;;;9.70;100.00;99686.81;5034608;27;131009;-72
2022/06/03 00:57:22;;;;;;;25.70;19.73;;;9.30;99.90;;;9.68;100.00;99678.19;5045103;27;128979;-71
2022/06/03 01:00:11;;;;;;;24.25;19.45;;;9.30;99.90;;;9.65;100.00;99686.13;5034646;27;120166;-74
2022/06/03 01:03:17;;;;;;;25.08;18.50;;;9.30;99.90;;;9.68;100.00;99680.91;5044360;27;118819;-73
2022/06/03 01:06:23;;;;;;;21.65;17.40;;;9.20;99.90;;;9.67;100.00;99687.44;5028110;27;129190;-73
2022/06/03 01:09:21;;;;;;;26.67;19.33;;;9.20;99.90;;;9.63;100.00;99697.28;5045861;27;128885;-73
2022/06/03 01:12:15;;;;;;;24.35;18.85;;;9.10;99.90;;;9.56;100.00;99699.56;5060367;27;119638;-74
2022/06/03 01:15:02;;;;;;;27.25;20.08;;;9.20;99.90;;;9.58;100.00;99701.97;5045481;27;119546;-73
2022/06/03 01:17:45;;;;;;;23.45;19.20;;;9.20;99.90;;;9.58;100.00;99712.81;5059971;27;130285;-75
2022/06/03 01:20:33;;;;;;;24.35;18.33;;;9.20;99.90;;;9.56;100.00;99699.56;5027847;27;128665;-74
2022/06/03 01:23:59;;;;;;;26.50;18.33;;;9.20;99.90;;;9.55;100.00;99706.06;5027005;27;122495;-75
2022/06/03 01:27:10;;;;;;;23.13;16.92;;;9.30;99.90;;;9.51;100.00;99705.09;4984944;27;121304;-75
2022/06/03 01:30:30;;;;;;;27.50;19.17;;;9.20;99.90;;;9.43;100.00;99703.88;4993287;27;128690;-75
2022/06/03 01:33:28;;;;;;;26.42;18.90;;;9.10;99.90;;;9.38;100.00;99700.44;4986994;27;129607;-78
2022/06/03 01:36:48;;;;;;;26.27;19.05;;;9.10;99.90;;;9.34;100.00;99705.66;5028105;27;118869;-76
2022/06/03 01:40:08;;;;;;;27.17;19.88;;;9.10;99.90;;;9.30;100.00;99708.16;5039676;27;118978;-73
2022/06/03 01:43:23;;;;;;;23.92;19.02;;;9.20;99.90;;;9.30;100.00;99701.94;5057440;27;129814;-72
2022/06/03 01:46:23;;;;;;;22.80;17.92;;;9.10;99.90;;;9.35;100.00;99707.28;5029465;27;129683;-74
2022/06/03 01:49:35;;;;;;;22.55;17.45;;;9.00;99.90;;;9.29;100.00;99711.97;5044751;27;119130;-73
2022/06/03 01:53:05;;;;;;;19.17;15.75;;;9.00;99.90;;;9.28;100.00;99704.94;5027716;27;118291;-72
2022/06/03 01:56:26;;;;;;;22.38;17.67;;;8.90;99.90;;;9.21;100.00;99712.66;5051880;27;130049;-73
2022/06/03 01:59:52;;;;;;;24.40;18.23;;;8.90;99.90;;;9.06;100.00;99721.03;5059745;27;129659;-73
2022/06/03 02:02:53;;;;;;;21.30;16.88;;;8.70;99.90;;;8.93;100.00;99720.69;5034466;27;119812;-71
2022/06/03 02:05:51;;;;;;;23.98;16.92;;;8.60;99.90;;;8.96;100.00;99722.81;5029518;27;120158;-71
2022/06/03 02:09:09;;;;;;;23.38;16.75;;;8.60;99.90;;;8.94;100.00;99718.78;5057735;27;129635;-74
2022/06/03 02:12:10;;;;;;;20.33;16.23;;;8.70;99.90;;;9.00;100.00;99723.81;5037892;27;129425;-72
2022/06/03 02:15:50;;;;;;;21.25;16.95;;;8.70;99.90;;;9.04;100.00;99720.50;5020672;27;119141;-72
2022/06/03 02:19:27;;;;;;;21.08;15.75;;;8.80;99.90;;;9.16;100.00;99723.56;5060274;27;119206;-72
2022/06/03 02:22:47;;;;;;;17.67;14.48;;;8.90;99.90;;;9.25;100.00;99727.19;4981432;27;129037;-72
2022/06/03 02:25:38;;;;;;;17.63;13.73;;;8.90;99.90;;;9.41;100.00;99729.66;5018458;27;130621;-73
2022/06/03 02:28:47;;;;;;;14.27;12.20;;;9.00;99.90;;;9.50;100.00;99733.28;5043153;27;121267;-72
2022/06/03 02:31:43;;;;;;;16.00;12.65;;;8.90;99.90;;;9.60;100.00;99735.81;5041045;27;122174;-73
2022/06/03 02:34:37;;;;;;;14.48;11.48;;;8.90;99.90;;;9.73;100.00;99741.53;5043973;27;129393;-76
2022/06/03 02:38:05;;;;;;;14.57;12.57;;;8.90;99.90;;;9.76;100.00;99732.81;5059116;27;129562;-74
2022/06/03 02:41:31;;;;;;;16.27;11.97;;;8.90;99.90;;;9.78;100.00;99736.03;5049507;27;119533;-73
2022/06/03 02:44:39;;;;;;;14.10;11.63;;;9.00;99.90;;;9.83;100.00;99744.03;5002710;27;118438;-73
2022/06/03 02:48:01;;;;;;;15.63;13.63;;;9.00;99.90;;;10.02;100.00;99752.91;5044083;27;129149;-74
2022/06/03 02:50:49;;;;;;;14.65;11.50;;;9.00;99.90;;;10.15;100.00;99751.28;5027116;27;129887;-73
2022/06/03 02:54:26;;;;;;;15.85;11.88;;;9.20;99.90;;;10.36;100.00;99762.56;5060815;27;119110;-73
2022/06/03 02:57:37;;;;;;;13.32;11.38;;;9.40;99.90;;;10.52;100.00;99770.38;5058622;27;119377;-72
2022/06/03 03:00:31;;;;;;;12.68;10.10;;;9.50;99.90;;;10.76;100.00;99770.91;4976395;28;131201;-73
2022/06/03 03:03:38;;;;;;;10.13;8.65;;;9.70;99.90;;;11.02;100.00;99777.69;4975643;28;129277;-74
2022/06/03 03:07:09;;;;;;;9.15;6.90;;;9.80;99.90;;;12.54;100.00;99776.69;4978928;28;119369;-74
2022/06/03 03:10:05;;;;;;;9.25;6.05;;;10.70;99.90;;;13.91;100.00;99782.66;4946174;28;118528;-76
2022/06/03 03:13:27;;;;;;;10.35;5.22;;;11.20;99.90;;;15.21;90.59;99777.53;4978321;28;130432;-74
2022/06/03 03:16:42;;;;;;;11.93;8.25;;;11.60;99.90;;;16.21;82.07;99784.03;4952729;28;129349;-75
2022/06/03 03:20:03;;;;;;;8.43;6.15;;;11.80;99.90;;;17.06;76.66;99791.34;4978774;28;119484;-74
2022/06/03 03:23:37;;;;;;;8.77;6.57;;;12.10;99.90;;;17.16;76.09;99789.25;4959562;28;118673;-73
2022/06/03 03:26:20;;;;;;;6.70;5.25;;;12.50;99.90;;;16.29;76.53;99792.13;4893817;28;130899;-73
2022/06/03 03:29:36;;;;;;;7.57;5.80;;;11.80;99.90;;;15.62;79.57;99802.38;4970449;28;129637;-73
2022/06/03 03:32:25;;;;;;;8.20;6.35;;;11.70;99.90;;;15.10;81.13;99807.22;5032416;27;120627;-74
2022/06/03 03:35:23;;;;;;;6.95;5.18;;;11.30;99.90;;;14.12;85.51;99811.97;5043966;27;122100;-73
2022/06/03 03:38:48;;;;;;;6.93;4.90;;;10.80;99.90;;;13.45;89.54;99797.88;5043477;27;129963;-72
2022/06/03 03:42:20;;;;;;;6.28;5.38;;;10.70;99.90;;;13.20;92.83;99808.44;4948430;28;128118;-75
2022/06/03 03:49:48;;;;;;;6.75;5.50;;;10.90;99.90;;;12.87;95.23;99811.66;4964575;28;119013;-74
2022/06/03 03:57:17;;;;;;;8.27;6.40;;;11.00;99.90;;;12.87;96.81;99814.38;4977223;28;129867;-74
2022/06/03 04:00:34;;;;;;;6.38;5.60;;;11.10;99.90;;;12.85;97.01;99811.16;4947777;28;119580;-77
2022/06/03 04:03:29;;;;;;;8.00;5.88;;;11.20;99.90;;;13.07;96.40;99814.84;4964930;28;120052;-75
2022/06/03 04:06:55;;;;;;;8.98;6.68;;;11.30;99.90;;;13.06;95.22;99824.16;4962844;28;128539;-71
2022/06/03 04:10:29;;;;;;;6.93;5.90;;;11.30;99.90;;;12.96;95.33;99827.97;4964051;28;128790;-75
2022/06/03 04:13:43;;;;;;;6.95;5.78;;;11.30;99.90;;;12.84;95.83;99823.19;5026611;27;120086;-76
2022/06/03 04:17:24;;;;;;;7.93;5.90;;;11.30;96.60;;;12.97;95.85;99821.44;5018924;27;119146;-75
2022/06/03 04:24:29;;;;;;;7.10;5.65;;;11.50;1.00;;;13.16;93.52;99826.56;5030287;27;129355;-77
2022/06/03 04:27:51;;;;;;;7.57;5.72;;;11.50;1.00;;;13.22;92.49;99828.00;5035019;27;122151;-75
2022/06/03 04:31:04;;;;;;;8.18;5.68;;;11.60;1.00;;;13.33;92.11;99836.69;5002425;27;118793;-78
2022/06/03 04:34:22;;;;;;;6.28;5.35;;;11.90;1.00;;;13.86;nan;99834.69;5045341;27;129845;-75
2022/06/03 04:37:46;;;;;;;6.82;5.38;;;12.30;1.00;;;13.94;88.80;99839.28;5029395;27;130183;-75
2022/06/03 04:41:13;;;;;;;7.03;5.28;;;12.30;1.00;;;14.28;87.59;99845.75;5041124;27;122076;-77
2022/06/03 04:44:49;;;;;;;6.85;5.40;;;12.40;1.00;;;14.50;84.13;99849.34;5042944;27;121628;-75
2022/06/03 04:48:15;;;;;;;6.57;5.28;;;12.50;1.00;;;14.61;83.08;99858.81;5039439;27;130079;-74
2022/06/03 04:51:36;;;;;;;7.10;5.05;;;12.60;1.00;;;14.83;84.49;99859.66;5041595;27;129526;-75
2022/06/03 04:55:07;;;;;;;6.68;4.97;;;12.80;1.00;;;14.52;83.79;99860.75;5040708;27;119685;-76
2022/06/03 04:58:17;;;;;;;8.00;5.00;;;12.80;1.00;;;14.25;84.58;99868.25;5031599;27;118247;-73
2022/06/03 05:01:28;;;;;;;6.57;4.72;;;12.70;1.00;;;14.23;86.08;99875.97;5014867;27;129592;-71
2022/06/03 05:05:06;;;;;;;6.45;4.85;;;12.80;1.00;;;14.74;84.33;99878.84;5040692;27;129885;-74
2022/06/03 05:08:31;;;;;;;8.50;4.97;;;13.10;1.00;;;14.90;81.95;99881.78;4995637;27;119854;-72
2022/06/03 05:11:56;;;;;;;7.50;5.05;;;13.00;1.00;;;14.99;81.32;99874.34;5041812;27;118766;-72
2022/06/03 05:15:06;;;;;;;6.32;5.00;;;12.90;1.00;;;15.06;81.25;99879.28;5038850;27;130354;-72
2022/06/03 05:18:25;;;;;;;6.88;4.82;;;12.80;1.00;;;14.98;80.49;99877.41;5039629;27;129614;-75
2022/06/03 05:21:55;;;;;;;7.65;4.68;;;13.10;1.00;;;14.72;83.26;99878.34;5042036;27;118462;-73
2022/06/03 05:25:30;;;;;;;6.97;4.97;;;13.20;1.00;;;14.91;81.19;99880.63;4946469;28;119377;-72
2022/06/03 05:28:43;;;;;;;7.85;6.05;;;13.20;1.00;;;15.19;80.28;99880.13;5038927;27;130063;-76
2022/06/03 05:32:00;;;;;;;6.88;4.65;;;13.20;1.00;;;15.43;78.84;99887.69;5041093;27;128524;-76
2022/06/03 05:35:07;;;;;;;7.50;5.38;;;13.40;1.00;;;15.28;78.05;99883.59;5008617;27;119891;-74
2022/06/03 05:38:44;;;;;;;7.85;4.90;;;13.20;1.00;;;15.29;76.72;99890.69;5012718;27;119269;-74
2022/06/03 05:44:57;;;;;;;6.88;5.30;;;13.50;1.00;;;15.66;75.31;99901.81;5006589;27;129068;-75
2022/06/03 05:47:34;;;;;;;6.40;4.50;;;13.30;1.00;;;15.78;71.67;99901.06;5022350;27;121562;-75
2022/06/03 05:50:08;;;;;;;6.10;4.45;;;13.30;1.00;;;15.69;71.37;99895.66;5007252;27;121516;-74
2022/06/03 05:53:08;;;;;;;6.45;4.47;;;13.40;1.00;;;15.65;69.58;99905.66;5024028;27;129093;-72
2022/06/03 05:56:07;;;;;;;10.18;4.85;;;13.60;1.00;;;15.88;69.08;99905.31;5038633;27;129507;-75
2022/06/03 05:58:47;;;;;;;5.53;4.07;;;13.70;1.00;;;16.18;71.11;99905.97;5007621;27;118947;-74
2022/06/03 06:01:42;;;;;;;5.70;4.43;;;14.00;1.00;;;16.40;71.56;99912.19;5007050;27;120296;-73
2022/06/03 06:04:20;;;;;;;6.45;4.10;;;14.20;1.00;;;16.34;68.47;99920.59;5020335;27;130620;-75
2022/06/03 06:07:12;;;;;;;5.32;4.03;;;13.90;1.00;;;16.30;65.03;99918.91;5020660;27;129232;-74
2022/06/03 06:09:56;;;;;;;5.80;3.55;;;13.90;99.90;;;16.24;65.60;99917.53;5041881;27;120824;-75
2022/06/03 06:13:01;;;;;;;5.05;3.83;;;13.80;1.00;;;16.29;67.17;99928.25;5024035;27;119573;-75
2022/06/03 06:16:03;;;;;;;6.78;3.60;;;14.20;1.00;;;16.35;64.59;99922.22;5021720;27;129686;-76
2022/06/03 06:18:45;;;;;;;5.63;3.38;;;13.90;99.90;;;16.35;63.98;99926.91;5041351;27;131741;-75
2022/06/03 06:21:49;;;;;;;4.50;3.22;;;13.90;99.90;;;16.30;64.27;99927.13;5023195;27;118933;-75
2022/06/03 06:24:37;;;;;;;6.22;3.28;;;14.00;99.90;;;16.31;61.99;99925.97;5003335;27;118177;-74
2022/06/03 06:27:57;;;;;;;5.10;3.38;;;13.70;99.90;;;16.20;64.24;99922.06;5022368;27;130791;-74
2022/06/03 06:31:25;;;;;;;5.10;3.08;;;13.80;99.90;;;15.90;66.14;99922.22;4988623;27;129700;-76
2022/06/03 06:34:31;;;;;;;6.57;3.57;;;14.50;99.90;;;16.39;65.39;99916.03;5039255;27;121465;-74
2022/06/03 06:38:02;;;;;;;4.68;3.10;;;14.40;99.90;;;16.52;64.66;99921.19;5039532;27;119541;-73
2022/06/03 06:40:52;;;;;;;5.95;3.30;;;14.60;99.90;;;16.75;63.85;99917.22;4978225;27;129405;-75
2022/06/03 06:43:44;;;;;;;5.53;3.00;;;14.50;99.90;;;16.90;59.92;99919.28;5023572;27;128487;-71
2022/06/03 06:46:32;;;;;;;4.95;2.78;;;14.60;99.90;;;17.02;59.74;99922.03;5037458;27;121618;-76
2022/06/03 06:49:18;;;;;;;5.10;2.75;;;14.70;99.90;;;17.17;56.46;99919.72;5038773;27;121792;-74
2022/06/03 06:52:21;;;;;;;3.42;2.33;;;14.90;99.90;;;17.21;56.42;99924.16;5020254;27;130010;-74
2022/06/03 06:55:03;;;;;;;3.75;2.10;;;15.10;99.90;;;17.40;53.34;99920.78;5038317;27;129467;-75
2022/06/03 06:57:35;;;;;;;4.05;2.20;;;15.20;99.90;;;17.45;53.61;99924.44;5023461;27;118183;-77
2022/06/03 07:00:16;;;;;;;4.57;2.30;;;15.10;99.90;;;17.60;52.44;99924.50;5038834;27;119157;-75
2022/06/03 07:02:52;;;;;;;4.10;2.22;;;15.30;99.90;;;17.53;49.71;99918.84;5026722;27;129556;-74
2022/06/03 07:05:31;;;;;;;4.45;2.35;;;14.80;99.90;;;17.53;50.39;99916.09;5042597;27;130427;-75
2022/06/03 07:08:05;;;;;;;4.63;1.92;;;15.00;99.90;;;17.49;47.78;99915.19;5042582;27;120492;-77
2022/06/03 07:10:44;;;;;;;6.65;2.20;;;14.90;99.90;;;17.57;48.91;99919.72;5042137;27;120425;-73
2022/06/03 07:13:18;;;;;;;2.97;1.85;;;15.10;99.90;;;17.58;48.35;99918.59;5040746;27;130127;-76
2022/06/03 07:16:09;;;;;;;4.15;2.20;;;15.10;99.90;;;17.44;48.82;99909.94;5026646;27;128218;-75
2022/06/03 07:22:02;;;;;;;3.88;2.30;;;14.90;99.90;;;17.65;50.18;99909.75;5042070;27;119721;-74
2022/06/03 07:24:43;;;;;;;5.07;1.92;;;15.30;99.90;;;17.72;48.48;99914.66;5027068;27;129328;-72
2022/06/03 07:27:21;;;;;;;3.78;2.20;;;15.30;99.90;;;17.90;49.13;99909.66;5041611;27;129604;-73
2022/06/03 07:29:57;;;;;;;3.38;1.60;;;15.40;99.90;;;17.99;47.24;99912.28;5042213;27;119839;-77
2022/06/03 07:32:31;;;;;;;5.00;2.30;;;15.40;99.90;;;17.96;47.54;99916.50;5042660;27;119633;-76
2022/06/03 07:35:06;;;;;;;4.90;2.03;;;15.70;99.90;;;18.22;47.27;99909.75;5041665;27;130522;-75
2022/06/03 07:37:44;;;;;;;5.10;1.92;;;15.90;99.90;;;17.77;48.42;99912.44;5041448;27;129752;-74
2022/06/03 07:40:23;;;;;;;4.25;2.00;;;15.90;99.90;;;16.88;50.60;99913.38;5025581;27;121730;-76
2022/06/03 07:42:58;;;;;;;4.10;1.95;;;15.60;99.90;;;16.83;53.53;99921.78;5042659;27;121800;-77
2022/06/03 07:45:48;;;;;;;3.57;1.80;;;15.70;99.90;;;17.50;50.72;99914.03;5043619;27;130127;-75
2022/06/03 07:48:21;;;;;;;3.70;1.88;;;16.20;99.90;;;18.11;49.32;99923.97;5045614;27;129307;-75
2022/06/03 07:50:58;;;;;;;2.60;1.70;;;16.30;99.90;;;18.53;47.45;99924.63;5045157;27;119143;-78
2022/06/03 07:53:35;;;;;;;;;;;16.30;99.90;;;18.27;48.44;99918.50;5044522;27;119254;-74
2022/06/03 07:56:04;;;;;;;;;;;16.10;99.90;;;18.41;47.24;99925.50;5046610;27;130130;-73
2022/06/03 07:58:37;;;;;;;2.80;1.63;;;16.20;99.90;;;18.81;46.98;99925.31;5012032;27;129389;-78
2022/06/03 08:01:07;;;;;;;3.55;1.98;;;16.50;99.90;;;18.99;46.68;99920.25;5044199;27;119670;-73
2022/06/03 08:03:38;;;;;;;5.22;1.80;;;16.60;99.90;;;19.06;46.46;99930.63;5041095;27;120156;-76
2022/06/03 08:06:09;;;;;;;3.15;1.70;;;16.30;99.90;;;18.87;47.46;99934.13;5039916;27;129704;-76
2022/06/03 08:11:33;;;;;;;3.67;1.75;;;16.70;99.90;;;19.12;47.40;99939.38;5040924;27;120227;-73
2022/06/03 08:14:04;;;;;;;4.68;1.70;;;16.90;99.90;;;19.21;46.61;99937.25;5041281;27;119512;-77
2022/06/03 08:16:36;;;;;;;2.20;1.58;;;16.40;99.90;;;18.97;47.65;99928.06;5040805;27;129916;-74
2022/06/03 08:19:12;;;;;;;3.78;1.92;;;16.60;99.90;;;19.34;47.60;99935.97;5040403;27;130061;-75
2022/06/03 08:21:47;;;;;;;3.38;1.80;;;16.80;99.90;;;19.51;47.69;99939.44;5025988;27;118440;-74
2022/06/03 08:24:20;;;;;;;3.95;2.10;;;16.90;99.90;;;19.67;45.77;99953.97;5041110;27;120041;-73
2022/06/03 08:26:54;;;;;;;4.22;1.48;;;16.80;99.90;;;19.15;45.62;99933.16;5025018;27;129020;-73
2022/06/03 08:29:33;;;;;;;2.58;1.55;;;16.40;99.90;;;18.85;46.14;99953.75;5040428;27;129953;-75
2022/06/03 08:32:06;;;;;;;5.90;2.05;;;15.90;99.90;;;18.71;49.04;99953.34;5024530;27;121095;-75
2022/06/03 08:34:42;;;;;;;4.13;1.55;;;16.20;99.90;;;18.69;49.02;99939.16;5040724;27;122629;-75
2022/06/03 08:37:14;;;;;;;;;;;16.00;99.90;;;18.06;51.59;99948.13;5042094;27;131238;-78
2022/06/03 08:39:45;;;;;;;4.55;1.90;;;16.10;99.90;;;17.92;50.79;99949.38;5022034;27;129656;-73
2022/06/03 08:42:40;;;;;;;6.05;2.30;;;15.70;99.90;;;18.44;51.28;99938.56;5040579;27;121055;-75
2022/06/03 08:45:31;;;;;;;4.78;1.90;;;16.30;99.90;;;18.72;50.33;99948.66;5041476;27;119460;-76
2022/06/03 08:48:06;;;;;;;5.93;1.60;;;16.50;99.90;;;18.46;46.69;99941.72;5011941;27;129873;-76
2022/06/03 08:50:44;;;;;;;2.10;1.20;;;16.00;99.90;;;18.62;45.94;99949.97;5022833;27;129663;-75
2022/06/03 08:53:23;;;;;;;8.77;5.32;;;16.10;99.90;;;18.88;47.70;99952.22;5059948;27;120471;-75
2022/06/03 08:55:59;;;;;;;4.13;1.70;;;16.50;99.90;;;19.22;49.29;99949.84;5045759;27;118883;-74
2022/06/03 08:58:43;;;;;;;3.78;1.55;;;16.90;99.90;;;19.26;45.84;99945.22;5025659;27;128808;-79
2022/06/03 09:01:22;;;;;;;7.80;1.80;;;16.30;99.90;;;19.32;45.79;99941.03;5061817;27;129124;-75
2022/06/03 09:04:03;;;;;;;5.45;1.70;;;16.70;99.90;;;19.51;46.88;99950.47;5060573;27;119467;-72
2022/06/03 09:06:43;;;;;;;2.25;1.42;;;16.80;99.90;;;19.77;45.19;99946.31;5060895;27;119604;-74
2022/06/03 09:09:27;;;;;;;4.80;1.90;;;17.30;99.90;;;19.94;44.18;99945.84;5042440;27;129923;-73
2022/06/03 09:12:10;;;;;;;1.60;1.20;;;17.20;99.90;;;19.72;44.87;99956.41;5060240;27;129523;-72
2022/06/03 09:14:42;;;;;;;2.63;1.50;;;16.80;99.90;;;19.42;46.75;99947.94;5045808;27;119006;-75
2022/06/03 09:17:38;;;;;;;3.70;1.58;;;16.60;99.90;;;19.29;48.06;99952.78;5038816;27;118894;-74
2022/06/03 09:20:13;;;;;;;4.22;1.70;;;16.70;99.90;;;19.61;46.69;99954.63;5008416;27;129445;-74
2022/06/03 09:22:44;;;;;;;3.33;1.60;;;17.00;99.90;;;19.84;46.87;99947.25;5007182;27;128422;-73
2022/06/03 09:25:17;;;;;;;2.80;1.23;;;17.20;99.90;;;19.87;45.63;99954.00;5023866;27;121287;-75
2022/06/03 09:27:48;;;;;;;5.35;1.60;;;17.30;99.90;;;20.06;45.95;99962.22;5025018;27;122339;-74
2022/06/03 09:30:27;;;;;;;3.20;1.70;;;17.20;99.90;;;20.07;46.13;99963.81;5007558;27;129504;-73
2022/06/03 09:32:57;;;;;;;3.40;1.58;;;17.30;99.90;;;20.44;44.42;99957.81;5042600;27;129639;-74
2022/06/03 09:35:28;;;;;;;2.20;1.40;;;17.60;99.90;;;20.66;45.20;99963.69;5027753;27;118591;-74
2022/06/03 09:38:01;;;;;;;2.50;1.45;;;18.00;99.90;;;20.70;42.54;99959.03;5031607;27;118570;-73
2022/06/03 09:40:33;;;;;;;1.80;1.30;;;17.50;99.90;;;20.81;42.15;99964.75;5039972;27;130724;-74
2022/06/03 09:43:09;;;;;;;3.20;1.60;;;17.60;99.90;;;21.26;43.51;99956.75;5038754;27;129411;-74
2022/06/03 09:45:38;;;;;;;4.97;1.85;;;18.50;99.90;;;21.29;42.21;99967.03;5039447;27;119809;-75
2022/06/03 09:48:09;;;;;;;3.53;1.42;;;18.20;99.90;;;21.44;42.59;99963.31;5024062;27;118655;-73
2022/06/03 09:50:38;;;;;;;3.05;1.50;;;18.10;99.90;;;20.83;42.23;99965.97;5037718;27;130293;-74
2022/06/03 09:53:11;;;;;;;2.20;1.50;;;17.50;99.90;;;20.10;45.05;99971.38;5039272;27;129692;-74
2022/06/03 09:55:43;;;;;;;5.50;1.80;;;17.40;99.90;;;19.79;45.51;99966.00;5024521;27;118385;-75
2022/06/03 09:58:26;;;;;;;4.38;2.20;;;17.30;99.90;;;19.72;44.70;99972.94;5039407;27;119678;-76
2022/06/03 10:00:58;;;;;;;5.07;1.67;;;17.20;99.90;;;19.90;45.78;99956.81;5030714;27;129062;-74
2022/06/03 10:03:27;;;;;;;2.80;1.65;;;17.10;99.90;;;19.77;45.52;99968.34;5033818;27;128241;-72
2022/06/03 10:06:00;;;;;;;3.63;1.60;;;17.20;99.90;;;19.54;45.78;99971.75;5041292;27;120176;-75
2022/06/03 10:12:48;;;;;;;5.13;1.70;;;16.90;99.90;;;19.77;46.49;99973.84;5039912;27;119403;-75
2022/06/03 10:14:08;;;;;;;2.38;1.55;;;17.60;99.90;;;19.97;45.46;99958.13;5041145;27;129080;-73
2022/06/03 10:16:38;;;;;;;2.60;1.50;;;17.40;99.90;;;19.47;46.43;99952.34;5036369;27;122470;-74
2022/06/03 10:19:06;;;;;;;3.20;1.77;;;17.00;99.90;;;19.15;48.28;99960.69;5038942;27;122868;-76
2022/06/03 10:21:34;;;;;;;4.50;2.17;;;17.00;99.90;;;18.92;48.13;99958.59;5039362;27;130115;-75
2022/06/03 10:24:06;;;;;;;3.30;1.65;;;16.90;99.90;;;19.15;47.61;99968.94;5040310;27;129324;-75
2022/06/03 10:26:49;;;;;;;3.55;1.60;;;16.80;99.90;;;19.65;45.59;99971.97;5039411;27;120309;-75
2022/06/03 10:29:21;;;;;;;2.83;1.70;;;17.20;99.90;;;20.58;44.85;99964.72;5039116;27;119702;-75
2022/06/03 10:31:53;;;;;;;2.85;1.60;;;17.60;99.90;;;21.03;42.96;99963.09;5038974;27;129968;-75
2022/06/03 10:34:27;;;;;;;3.10;1.65;;;17.80;99.90;;;21.39;42.50;99960.84;5038852;27;129429;-75
2022/06/03 10:36:58;;;;;;;3.47;1.60;;;18.50;99.90;;;21.76;41.92;99960.19;5039169;27;119780;-76
2022/06/03 10:39:30;;;;;;;2.80;1.75;;;18.60;99.90;;;22.10;41.41;99959.38;5039379;27;119513;-75
2022/06/03 10:42:00;;;;;;;3.08;1.50;;;19.60;99.90;;;22.31;41.15;99958.81;5037951;27;130967;-76
2022/06/03 10:44:36;;;;;;;5.47;2.05;;;19.60;99.90;;;22.97;37.81;99961.75;5054588;27;130100;-77
2022/06/03 10:47:07;;;;;;;3.13;1.47;;;19.20;99.90;;;22.79;36.67;99956.88;5041188;27;118324;-74
2022/06/03 10:49:51;;;;;;;2.63;1.42;;;18.60;99.90;;;21.97;39.51;99956.06;5023593;27;120735;-74
2022/06/03 11:01:19;;;;;;;1.77;1.10;;;19.10;99.90;;;22.05;40.72;99941.97;5040906;27;119433;-74
2022/06/03 11:03:52;;;;;;;3.25;2.05;;;18.80;99.90;;;22.13;42.58;99937.31;5038594;27;130356;-75
2022/06/03 11:06:25;;;;;;;3.47;1.67;;;19.10;99.90;;;22.47;41.63;99934.50;5020120;27;129097;-74
2022/06/03 11:08:58;;;;;;;6.07;3.95;;;18.70;99.90;;;22.59;41.08;99942.50;5019219;27;122072;-75
2022/06/03 11:11:39;;;;;;;1.77;1.30;;;18.90;99.90;;;22.80;37.79;99941.88;5038459;27;121622;-74
2022/06/03 11:14:43;;;;;;;5.60;2.30;;;19.60;99.90;;;21.74;40.47;99934.91;5038274;27;130441;-76
2022/06/03 11:17:18;;;;;;;3.30;1.83;;;18.80;99.90;;;20.67;44.54;99945.22;4975248;28;129380;-76
2022/06/03 11:19:53;;;;;;;3.47;1.60;;;18.50;99.90;;;21.03;43.74;99943.78;4975619;28;119998;-75
2022/06/03 11:22:29;;;;;;;3.30;1.60;;;18.50;99.90;;;21.19;43.65;99936.16;4961979;28;119385;-75
2022/06/03 11:25:05;;;;;;;2.92;1.42;;;18.40;99.90;;;21.35;42.60;99935.19;4975535;28;130377;-74
2022/06/03 11:27:49;;;;;;;4.50;1.55;;;18.20;99.90;;;21.12;43.99;99936.03;4975463;28;129924;-73
2022/06/03 11:30:29;;;;;;;4.22;1.70;;;18.20;99.90;;;20.99;44.53;99937.44;4975781;28;119866;-75
2022/06/03 11:33:04;;;;;;;3.17;1.70;;;18.40;99.90;;;20.88;43.74;99941.97;4962665;28;119576;-73
2022/06/03 11:35:40;;;;;;;3.95;1.80;;;17.90;99.90;;;20.98;45.00;99941.34;4975531;28;129664;-75
2022/06/03 11:38:16;;;;;;;3.92;1.70;;;18.20;99.90;;;21.11;43.34;99939.97;4975495;28;130093;-75
2022/06/03 11:40:52;;;;;;;3.28;1.60;;;18.00;99.90;;;21.23;44.17;99929.88;4971933;28;119884;-74
2022/06/03 11:43:30;;;;;;;4.72;2.42;;;18.30;99.90;;;20.80;44.39;99930.84;4955734;28;120137;-72
2022/06/03 11:46:06;;;;;;;3.65;1.85;;;18.50;99.90;;;20.74;43.44;99937.84;4958462;28;129103;-74
2022/06/03 11:48:38;;;;;;;3.95;1.70;;;18.10;99.90;;;21.19;42.80;99929.81;5004249;27;129590;-75
2022/06/03 11:51:09;;;;;;;3.42;1.88;;;18.30;99.90;;;21.46;43.25;99930.59;5042125;27;120023;-74
2022/06/03 11:53:41;;;;;;;4.00;1.40;;;18.90;99.90;;;21.77;40.82;99927.81;5042491;27;119356;-76
2022/06/03 11:56:12;;;;;;;3.75;1.38;;;19.10;99.90;;;21.52;40.47;99931.09;5041189;27;129635;-76
2022/06/03 11:58:53;;;;;;;2.08;1.55;;;18.50;99.90;;;21.65;41.44;99926.91;5025960;27;129262;-77
2022/06/03 12:01:33;;;;;;;2.63;1.33;;;18.90;99.90;;;21.72;41.28;99929.75;5056473;27;122236;-76
2022/06/03 12:04:11;;;;;;;3.10;1.13;;;18.80;99.90;;;21.78;39.71;99927.44;5060957;27;121040;-75
2022/06/03 12:06:46;;;;;;;4.10;1.67;;;19.10;99.90;;;22.15;39.10;99917.56;5061035;27;130808;-74
2022/06/03 12:09:35;;;;;;;3.30;1.55;;;19.30;99.90;;;22.57;39.07;99908.88;5063520;27;128613;-77
2022/06/03 12:15:35;;;;;;;2.35;1.35;;;19.90;99.90;;;22.37;38.72;99910.31;5060992;27;119562;-73
2022/06/03 12:19:03;;;;;;;3.60;1.38;;;19.50;99.90;;;21.56;39.51;99909.03;5041846;27;130202;-74
2022/06/03 12:22:16;;;;;;;2.87;1.30;;;18.50;99.90;;;21.00;40.27;99908.66;5050070;27;128629;-75
2022/06/03 12:24:53;;;;;;;2.42;1.23;;;18.60;99.90;;;21.04;40.72;99912.28;5077068;27;119292;-74
2022/06/03 12:27:31;;;;;;;2.78;1.20;;;18.60;99.90;;;22.11;39.32;99912.03;5062566;27;118745;-74
2022/06/03 12:30:37;;;;;;;4.18;1.52;;;19.20;99.90;;;22.31;38.32;99909.06;5059642;27;129849;-76
2022/06/03 12:33:12;;;;;;;2.95;1.48;;;19.40;99.90;;;22.24;40.07;99896.72;5062801;27;128430;-78
2022/06/03 12:36:03;;;;;;;9.52;1.48;;;19.50;99.90;;;22.18;39.36;99901.03;5061409;27;120136;-75
2022/06/03 12:39:18;;;;;;;3.70;1.90;;;19.70;99.90;;;21.86;38.67;99900.69;5061031;27;119526;-77